Time;durP1;ratioP1;P1;durP2;ratioP2;P2;SDS_P1;SDS_P2;PMS_P1;PMS_P2;Temp;Humidity;BMP_temperature;BMP_pressure;BME280_temperature;BME280_humidity;BME280_pressure;Samples;Min_cycle;Max_cycle;Signal;HPM_P1;HPM_P2
2022/11/15 00:00:15;;;;;;;9.97;7.23;;;;;;;;;;5040931;28;20180;-87
2022/11/15 00:03:38;;;;;;;8.50;7.03;;;;;;;;;;5032024;28;20180;-87
2022/11/15 00:07:00;;;;;;;10.03;7.20;;;;;;;;;;5052171;28;20188;-87
2022/11/15 00:10:23;;;;;;;12.63;6.80;;;;;;;;;;5042337;28;20180;-87
2022/11/15 00:13:45;;;;;;;11.33;6.97;;;;;;;;;;5035723;28;20177;-87
2022/11/15 00:17:07;;;;;;;8.77;6.57;;;;;;;;;;5035629;28;20184;-87
2022/11/15 00:20:30;;;;;;;10.33;6.83;;;;;;;;;;5056100;28;20191;-87
2022/11/15 00:23:53;;;;;;;9.63;6.97;;;;;;;;;;5066958;28;20179;-87
2022/11/15 00:27:15;;;;;;;9.00;6.87;;;;;;;;;;5055187;28;20569;-86
2022/11/15 00:30:37;;;;;;;8.33;6.80;;;;;;;;;;5067121;28;20179;-87
2022/11/15 00:34:00;;;;;;;8.50;6.60;;;;;;;;;;5055213;28;20175;-87
2022/11/15 00:37:22;;;;;;;8.63;6.33;;;;;;;;;;5055141;28;20176;-87
2022/11/15 00:40:45;;;;;;;10.60;7.10;;;;;;;;;;5066620;28;20569;-87
2022/11/15 00:44:08;;;;;;;7.87;6.87;;;;;;;;;;5065294;28;20180;-87
2022/11/15 00:47:30;;;;;;;7.70;6.53;;;;;;;;;;5056386;28;20211;-87
2022/11/15 00:50:53;;;;;;;9.10;6.40;;;;;;;;;;5057249;28;20184;-87
2022/11/15 00:54:15;;;;;;;9.47;6.20;;;;;;;;;;5056258;28;20180;-87
2022/11/15 00:57:38;;;;;;;8.23;5.87;;;;;;;;;;5056167;28;20180;-87
2022/11/15 01:01:12;;;;;;;6.73;5.67;;;;;;;;;;5057284;28;20207;-87
2022/11/15 01:04:34;;;;;;;9.33;6.87;;;;;;;;;;5042731;28;20172;-87
2022/11/15 01:07:57;;;;;;;9.70;6.93;;;;;;;;;;5046155;28;21676;-87
2022/11/15 01:11:20;;;;;;;9.27;6.50;;;;;;;;;;5058825;23;20232;-87
2022/11/15 01:14:43;;;;;;;10.23;6.60;;;;;;;;;;5034257;28;20181;-87
2022/11/15 01:18:05;;;;;;;11.43;7.33;;;;;;;;;;5033848;28;20181;-87
2022/11/15 01:21:28;;;;;;;14.17;7.40;;;;;;;;;;5033052;28;20560;-87
2022/11/15 01:24:50;;;;;;;12.03;6.73;;;;;;;;;;5033874;28;20607;-87
2022/11/15 01:28:13;;;;;;;13.93;8.13;;;;;;;;;;5033867;28;20204;-88
2022/11/15 01:31:35;;;;;;;9.50;6.73;;;;;;;;;;5033494;28;20228;-88
2022/11/15 01:34:57;;;;;;;8.27;6.90;;;;;;;;;;5033573;28;20181;-88
2022/11/15 01:38:20;;;;;;;12.10;6.83;;;;;;;;;;5033799;28;20172;-88
2022/11/15 01:41:43;;;;;;;9.93;6.93;;;;;;;;;;5033607;28;20311;-88
2022/11/15 01:45:06;;;;;;;9.03;6.80;;;;;;;;;;5033606;28;20631;-88
2022/11/15 01:48:33;;;;;;;9.63;7.00;;;;;;;;;;5033401;28;20666;-92
2022/11/15 01:51:57;;;;;;;7.83;6.13;;;;;;;;;;5042143;28;20509;-92
2022/11/15 01:55:22;;;;;;;8.37;6.40;;;;;;;;;;5033340;28;20188;-91
2022/11/15 01:58:46;;;;;;;12.80;6.57;;;;;;;;;;5033410;28;20181;-92
2022/11/15 02:02:08;;;;;;;10.20;5.97;;;;;;;;;;5048806;28;20195;-91
2022/11/15 02:05:32;;;;;;;7.63;6.63;;;;;;;;;;5052948;28;20175;-91
2022/11/15 02:08:56;;;;;;;8.83;6.30;;;;;;;;;;5053291;28;20207;-92
2022/11/15 02:12:21;;;;;;;7.20;6.00;;;;;;;;;;5052873;28;20184;-91
2022/11/15 02:16:02;;;;;;;8.63;6.50;;;;;;;;;;5052686;28;20183;-92
2022/11/15 02:19:32;;;;;;;8.43;6.30;;;;;;;;;;5061664;28;20176;-91
2022/11/15 02:23:16;;;;;;;9.53;6.90;;;;;;;;;;5052751;28;20183;-91
2022/11/15 02:27:09;;;;;;;8.47;6.87;;;;;;;;;;5061447;28;20516;-91
2022/11/15 02:31:12;;;;;;;8.87;6.40;;;;;;;;;;5052271;28;20219;-91
2022/11/15 02:34:51;;;;;;;10.23;7.27;;;;;;;;;;5045636;28;20190;-91
2022/11/15 02:38:34;;;;;;;8.33;6.57;;;;;;;;;;5052298;28;20527;-91
2022/11/15 02:50:33;;;;;;;10.27;6.87;;;;;;;;;;5061153;28;20215;-91
2022/11/15 02:53:55;;;;;;;8.23;6.23;;;;;;;;;;5052291;28;20179;-92
2022/11/15 02:57:23;;;;;;;8.60;6.67;;;;;;;;;;5052048;28;20179;-92
2022/11/15 03:01:06;;;;;;;8.90;6.67;;;;;;;;;;5052117;28;20219;-92
2022/11/15 03:04:57;;;;;;;9.57;6.47;;;;;;;;;;5052400;28;20179;-92
2022/11/15 03:08:27;;;;;;;9.80;6.47;;;;;;;;;;5052032;28;20223;-92
2022/11/15 03:11:58;;;;;;;10.73;6.93;;;;;;;;;;5052155;28;20207;-92
2022/11/15 03:15:27;;;;;;;7.67;6.30;;;;;;;;;;5063497;28;20180;-92
2022/11/15 03:18:58;;;;;;;11.77;6.70;;;;;;;;;;5051752;28;20180;-92
2022/11/15 03:22:25;;;;;;;9.23;6.60;;;;;;;;;;5051649;28;20179;-92
2022/11/15 03:25:51;;;;;;;9.03;6.63;;;;;;;;;;5051929;28;20183;-92
2022/11/15 03:29:22;;;;;;;9.40;6.07;;;;;;;;;;5051895;28;20561;-92
2022/11/15 03:32:50;;;;;;;8.27;6.03;;;;;;;;;;5063428;28;20180;-91
2022/11/15 03:36:12;;;;;;;9.33;6.10;;;;;;;;;;5051656;28;20184;-91
2022/11/15 03:39:35;;;;;;;7.63;5.83;;;;;;;;;;5051665;28;20176;-91
2022/11/15 03:43:14;;;;;;;7.30;6.10;;;;;;;;;;5063410;28;20184;-91
2022/11/15 03:46:57;;;;;;;8.67;6.13;;;;;;;;;;5055309;28;20650;-91
2022/11/15 03:50:22;;;;;;;9.67;6.20;;;;;;;;;;5076526;28;20204;-91
2022/11/15 03:53:45;;;;;;;10.00;6.43;;;;;;;;;;5055413;28;20184;-91
2022/11/15 03:57:08;;;;;;;9.20;6.37;;;;;;;;;;5055170;28;20619;-91
2022/11/15 04:00:30;;;;;;;7.83;5.33;;;;;;;;;;5055145;28;20211;-91
2022/11/15 04:03:53;;;;;;;8.37;6.17;;;;;;;;;;5055467;28;20187;-91
2022/11/15 04:07:15;;;;;;;8.17;6.60;;;;;;;;;;5064030;28;20183;-91
2022/11/15 04:10:39;;;;;;;7.20;5.47;;;;;;;;;;5063991;28;20216;-91
2022/11/15 04:14:02;;;;;;;8.77;6.40;;;;;;;;;;5064062;28;20184;-91
2022/11/15 04:17:24;;;;;;;6.20;5.20;;;;;;;;;;5055056;28;20623;-91
2022/11/15 04:24:28;;;;;;;7.90;5.60;;;;;;;;;;5063995;28;20627;-91
2022/11/15 04:27:51;;;;;;;7.33;5.80;;;;;;;;;;5054886;28;20179;-91
2022/11/15 04:31:13;;;;;;;8.17;5.73;;;;;;;;;;5054925;28;20582;-91
2022/11/15 04:34:36;;;;;;;8.40;5.73;;;;;;;;;;5063697;28;20179;-91
2022/11/15 04:37:59;;;;;;;8.73;5.60;;;;;;;;;;5054942;28;20175;-91
2022/11/15 04:41:22;;;;;;;7.70;5.70;;;;;;;;;;5065989;28;20585;-88
2022/11/15 04:44:44;;;;;;;9.03;6.20;;;;;;;;;;5054634;28;20179;-88
2022/11/15 04:48:07;;;;;;;9.73;6.70;;;;;;;;;;5054669;28;20180;-88
2022/11/15 04:51:30;;;;;;;9.00;6.80;;;;;;;;;;5054169;28;20593;-88
2022/11/15 04:54:52;;;;;;;7.93;6.43;;;;;;;;;;5063301;28;20176;-88
2022/11/15 04:58:15;;;;;;;8.37;6.27;;;;;;;;;;5053803;28;20542;-87
2022/11/15 05:01:37;;;;;;;8.50;6.27;;;;;;;;;;5054058;28;20219;-87
2022/11/15 05:05:00;;;;;;;10.33;6.27;;;;;;;;;;5054206;28;20183;-88
2022/11/15 05:08:22;;;;;;;7.80;5.63;;;;;;;;;;5063378;28;20508;-87
2022/11/15 05:11:45;;;;;;;8.23;5.97;;;;;;;;;;5053885;28;20203;-87
2022/11/15 05:15:08;;;;;;;9.67;6.20;;;;;;;;;;5054630;28;20183;-92
2022/11/15 05:18:31;;;;;;;10.43;6.17;;;;;;;;;;5054119;28;20176;-88
2022/11/15 05:21:53;;;;;;;7.93;6.17;;;;;;;;;;5054187;28;20180;-88
2022/11/15 05:25:16;;;;;;;7.33;5.60;;;;;;;;;;5054113;28;20176;-88
2022/11/15 05:28:38;;;;;;;10.93;7.33;;;;;;;;;;5053882;28;20208;-88
2022/11/15 05:32:04;;;;;;;36.90;20.30;;;;;;;;;;5053717;28;20188;-88
2022/11/15 05:35:41;;;;;;;27.47;17.00;;;;;;;;;;5053749;28;20641;-87
2022/11/15 05:39:05;;;;;;;26.20;16.83;;;;;;;;;;5053618;28;20527;-87
2022/11/15 05:42:29;;;;;;;17.93;10.97;;;;;;;;;;5062810;28;20180;-88
2022/11/15 05:45:52;;;;;;;11.00;7.47;;;;;;;;;;5053441;28;20515;-88
2022/11/15 05:49:18;;;;;;;8.20;6.37;;;;;;;;;;5053312;28;20203;-92
2022/11/15 05:52:42;;;;;;;8.57;5.23;;;;;;;;;;5053098;28;20546;-92
2022/11/15 05:56:06;;;;;;;8.07;5.40;;;;;;;;;;5052901;28;20187;-90
2022/11/15 05:59:30;;;;;;;6.70;5.40;;;;;;;;;;5052390;28;20192;-90
2022/11/15 06:02:52;;;;;;;8.17;5.90;;;;;;;;;;5061854;28;20630;-90
2022/11/15 06:06:15;;;;;;;8.30;6.00;;;;;;;;;;5052925;28;20180;-91
2022/11/15 06:09:37;;;;;;;7.63;6.57;;;;;;;;;;5052261;28;20597;-90
2022/11/15 06:13:02;;;;;;;8.20;6.77;;;;;;;;;;5053150;28;20559;-90
2022/11/15 06:16:25;;;;;;;8.80;6.37;;;;;;;;;;5061733;28;20207;-90
2022/11/15 06:19:47;;;;;;;8.03;5.60;;;;;;;;;;5044534;28;20216;-91
2022/11/15 06:23:10;;;;;;;8.23;6.40;;;;;;;;;;5041784;28;20914;-91
2022/11/15 06:26:32;;;;;;;7.17;5.80;;;;;;;;;;5033015;28;20655;-91
2022/11/15 06:29:54;;;;;;;9.30;6.40;;;;;;;;;;5041437;28;20650;-91
2022/11/15 06:33:17;;;;;;;8.53;6.30;;;;;;;;;;5041561;28;20636;-91
2022/11/15 06:36:40;;;;;;;7.30;5.80;;;;;;;;;;5041457;28;20643;-91
2022/11/15 06:40:03;;;;;;;9.27;6.07;;;;;;;;;;5032437;28;20622;-91
2022/11/15 06:43:25;;;;;;;8.23;6.20;;;;;;;;;;5032435;28;20611;-92
2022/11/15 06:46:48;;;;;;;7.77;5.70;;;;;;;;;;5052615;28;20546;-91
2022/11/15 06:50:10;;;;;;;8.83;5.67;;;;;;;;;;5040978;28;20650;-91
2022/11/15 06:53:33;;;;;;;6.73;5.30;;;;;;;;;;5043880;28;20193;-91
2022/11/15 06:56:55;;;;;;;8.47;5.90;;;;;;;;;;5032785;28;20180;-91
2022/11/15 07:00:20;;;;;;;9.40;6.27;;;;;;;;;;5041088;28;20626;-91
2022/11/15 07:03:42;;;;;;;10.60;6.97;;;;;;;;;;5050030;28;20625;-91
2022/11/15 07:07:05;;;;;;;11.23;7.10;;;;;;;;;;5063161;28;20195;-92
2022/11/15 07:10:28;;;;;;;11.27;8.63;;;;;;;;;;5051499;28;20223;-92
2022/11/15 07:13:51;;;;;;;18.70;11.63;;;;;;;;;;5072190;28;20203;-92
2022/11/15 07:17:14;;;;;;;18.50;11.40;;;;;;;;;;5042093;28;20207;-92
2022/11/15 07:20:36;;;;;;;11.07;8.60;;;;;;;;;;5075309;28;20207;-92
2022/11/15 07:23:59;;;;;;;19.07;12.27;;;;;;;;;;5055949;28;20188;-90
2022/11/15 07:27:21;;;;;;;47.47;15.00;;;;;;;;;;5054696;28;20196;-92
2022/11/15 07:30:43;;;;;;;17.60;11.40;;;;;;;;;;5039170;28;20227;-93
2022/11/15 07:34:06;;;;;;;14.73;9.47;;;;;;;;;;5064558;28;20184;-91
2022/11/15 07:37:28;;;;;;;14.40;8.90;;;;;;;;;;5065107;28;20191;-91
2022/11/15 07:40:59;;;;;;;12.97;8.23;;;;;;;;;;5089315;22;20673;-87
2022/11/15 07:44:21;;;;;;;9.73;7.00;;;;;;;;;;5052849;28;20191;-86
2022/11/15 07:47:48;;;;;;;13.03;7.40;;;;;;;;;;5046852;28;20192;-88
2022/11/15 07:51:13;;;;;;;10.70;6.47;;;;;;;;;;5051680;28;20227;-86
2022/11/15 07:54:36;;;;;;;8.97;6.53;;;;;;;;;;5048825;28;20180;-87
2022/11/15 07:58:10;;;;;;;11.13;7.80;;;;;;;;;;5049094;28;20199;-88
2022/11/15 08:01:33;;;;;;;9.93;7.00;;;;;;;;;;5047109;28;20224;-87
2022/11/15 08:04:55;;;;;;;9.30;6.67;;;;;;;;;;5040006;28;20207;-88
2022/11/15 08:08:18;;;;;;;10.40;6.50;;;;;;;;;;5046259;28;20192;-88
2022/11/15 08:11:41;;;;;;;9.10;6.27;;;;;;;;;;5045191;28;20255;-89
2022/11/15 08:15:04;;;;;;;9.40;6.53;;;;;;;;;;5049534;28;20208;-89
2022/11/15 08:18:26;;;;;;;7.17;6.03;;;;;;;;;;5054457;28;20207;-88
2022/11/15 08:21:49;;;;;;;10.13;7.63;;;;;;;;;;5048164;28;20216;-88
2022/11/15 08:25:11;;;;;;;10.50;7.10;;;;;;;;;;5055947;28;20199;-88
2022/11/15 08:28:34;;;;;;;14.00;7.10;;;;;;;;;;5045548;28;20201;-89
2022/11/15 08:31:56;;;;;;;11.43;7.13;;;;;;;;;;5047382;28;20212;-89
2022/11/15 08:35:20;;;;;;;10.47;7.70;;;;;;;;;;5048747;28;20188;-89
2022/11/15 08:38:43;;;;;;;8.37;7.00;;;;;;;;;;5044892;28;20184;-88
2022/11/15 08:42:05;;;;;;;13.47;8.80;;;;;;;;;;5045025;28;20682;-88
2022/11/15 08:45:29;;;;;;;10.67;8.13;;;;;;;;;;5036430;28;20184;-88
2022/11/15 08:48:51;;;;;;;10.80;8.27;;;;;;;;;;5035898;28;20185;-88
2022/11/15 08:52:14;;;;;;;9.43;6.80;;;;;;;;;;5045047;28;20678;-88
2022/11/15 08:55:38;;;;;;;7.57;6.00;;;;;;;;;;5044451;28;20184;-88
2022/11/15 08:59:01;;;;;;;8.93;6.07;;;;;;;;;;5035699;28;20177;-88
2022/11/15 09:02:23;;;;;;;8.33;5.40;;;;;;;;;;5056923;28;20181;-89
2022/11/15 09:05:46;;;;;;;7.73;5.00;;;;;;;;;;5035713;28;20180;-88
2022/11/15 09:09:08;;;;;;;6.70;4.87;;;;;;;;;;5035589;28;20635;-88
2022/11/15 09:12:31;;;;;;;8.03;5.73;;;;;;;;;;5044080;28;20654;-86
2022/11/15 09:15:57;;;;;;;7.17;6.33;;;;;;;;;;5056961;28;20192;-86
2022/11/15 09:19:20;;;;;;;11.60;7.53;;;;;;;;;;5062125;28;20176;-86
2022/11/15 09:22:43;;;;;;;11.33;8.37;;;;;;;;;;5043758;28;20239;-86
2022/11/15 09:26:05;;;;;;;13.03;8.70;;;;;;;;;;5055284;28;20674;-87
2022/11/15 09:29:28;;;;;;;13.77;9.20;;;;;;;;;;5057559;28;20200;-86
2022/11/15 09:32:51;;;;;;;9.63;7.33;;;;;;;;;;5037647;28;20200;-87
2022/11/15 09:36:13;;;;;;;7.80;6.60;;;;;;;;;;5035254;28;20184;-88
2022/11/15 09:39:35;;;;;;;8.07;5.93;;;;;;;;;;5035076;28;20184;-89
2022/11/15 09:43:08;;;;;;;6.87;5.17;;;;;;;;;;5034717;28;20176;-88
2022/11/15 09:46:50;;;;;;;10.37;5.33;;;;;;;;;;5044019;28;20176;-88
2022/11/15 09:50:12;;;;;;;8.10;5.17;;;;;;;;;;5036915;28;20211;-87
2022/11/15 09:53:26;;;;;;;7.00;5.10;;;;;;;;;;5029227;28;20191;-88
2022/11/15 09:56:34;;;;;;;7.40;5.23;;;;;;;;;;5022427;28;20566;-88
2022/11/15 10:00:00;;;;;;;5.77;4.57;;;;;;;;;;5031625;28;20200;-87
2022/11/15 10:03:15;;;;;;;7.33;4.43;;;;;;;;;;5043464;28;20180;-88
2022/11/15 10:06:24;;;;;;;6.37;5.07;;;;;;;;;;5031760;28;20188;-88
2022/11/15 10:09:53;;;;;;;5.27;4.57;;;;;;;;;;5031685;28;20192;-88
2022/11/15 10:12:57;;;;;;;4.80;4.27;;;;;;;;;;5031772;28;20188;-88
2022/11/15 10:16:19;;;;;;;6.30;4.30;;;;;;;;;;5031969;28;20172;-88
2022/11/15 10:19:59;;;;;;;9.47;4.60;;;;;;;;;;5031576;28;20176;-88
2022/11/15 10:23:10;;;;;;;5.80;4.67;;;;;;;;;;5031807;28;20180;-88
2022/11/15 10:26:17;;;;;;;5.43;4.10;;;;;;;;;;5043324;28;20181;-88
2022/11/15 10:29:22;;;;;;;7.40;4.13;;;;;;;;;;5031666;28;20204;-88
2022/11/15 10:32:27;;;;;;;6.97;4.00;;;;;;;;;;5031370;28;20189;-88
2022/11/15 10:35:31;;;;;;;6.83;4.40;;;;;;;;;;5030588;28;20191;-88
2022/11/15 10:38:48;;;;;;;3.80;3.40;;;;;;;;;;5042636;28;20172;-88
2022/11/15 10:41:52;;;;;;;3.83;3.43;;;;;;;;;;5030862;28;20216;-88
2022/11/15 10:44:56;;;;;;;4.70;3.83;;;;;;;;;;5042512;28;20176;-88
2022/11/15 10:48:12;;;;;;;5.60;3.80;;;;;;;;;;5042757;28;20535;-88
2022/11/15 10:51:29;;;;;;;3.40;3.00;;;;;;;;;;5042611;28;20228;-88
2022/11/15 10:54:40;;;;;;;4.43;3.50;;;;;;;;;;5029981;28;20184;-88
2022/11/15 10:57:51;;;;;;;4.30;3.63;;;;;;;;;;5031127;28;20523;-88
2022/11/15 11:01:05;;;;;;;4.97;4.07;;;;;;;;;;5030348;28;20317;-88
2022/11/15 11:04:09;;;;;;;5.57;4.23;;;;;;;;;;5030561;28;20183;-89
2022/11/15 11:07:29;;;;;;;6.13;4.33;;;;;;;;;;5030246;28;20192;-88
2022/11/15 11:10:34;;;;;;;6.47;4.70;;;;;;;;;;5041634;28;20227;-88
2022/11/15 11:13:39;;;;;;;6.17;4.33;;;;;;;;;;5030495;28;20184;-88
2022/11/15 11:17:07;;;;;;;6.47;4.33;;;;;;;;;;5042196;28;20188;-88
2022/11/15 11:20:30;;;;;;;4.33;3.80;;;;;;;;;;5030386;28;20180;-88
2022/11/15 11:23:44;;;;;;;4.63;3.97;;;;;;;;;;5030671;28;20184;-88
2022/11/15 11:27:04;;;;;;;5.80;4.07;;;;;;;;;;5030208;28;20196;-88
2022/11/15 11:30:16;;;;;;;4.77;3.90;;;;;;;;;;5030191;28;20188;-88
2022/11/15 11:33:29;;;;;;;4.67;4.07;;;;;;;;;;5030171;28;20176;-89
2022/11/15 11:36:53;;;;;;;6.50;4.20;;;;;;;;;;5030454;28;20196;-88
2022/11/15 11:40:24;;;;;;;5.53;4.10;;;;;;;;;;5041957;28;20180;-88
2022/11/15 11:43:39;;;;;;;6.13;4.27;;;;;;;;;;5031554;28;20177;-88
2022/11/15 11:47:01;;;;;;;6.27;3.70;;;;;;;;;;5030186;28;20188;-88
2022/11/15 11:50:18;;;;;;;4.70;3.70;;;;;;;;;;5041097;28;20176;-88
2022/11/15 11:53:31;;;;;;;5.27;3.33;;;;;;;;;;5041576;28;20192;-88
2022/11/15 11:56:38;;;;;;;4.47;3.37;;;;;;;;;;5030327;28;20184;-88
2022/11/15 11:59:47;;;;;;;4.73;3.40;;;;;;;;;;5041829;28;20180;-88
2022/11/15 12:03:30;;;;;;;5.40;3.50;;;;;;;;;;5029978;28;20185;-88
2022/11/15 12:06:44;;;;;;;5.73;3.40;;;;;;;;;;5031662;28;20619;-88
2022/11/15 12:09:53;;;;;;;4.87;3.40;;;;;;;;;;5022471;28;20180;-88
2022/11/15 12:13:21;;;;;;;5.23;3.83;;;;;;;;;;5033688;28;20659;-88
2022/11/15 12:16:31;;;;;;;4.53;3.70;;;;;;;;;;5033210;28;20188;-88
2022/11/15 12:19:35;;;;;;;4.93;3.73;;;;;;;;;;5033371;28;20176;-88
2022/11/15 12:22:57;;;;;;;8.07;4.07;;;;;;;;;;5033031;28;20192;-88
2022/11/15 12:26:11;;;;;;;5.67;3.57;;;;;;;;;;5033505;28;20181;-88
2022/11/15 12:29:22;;;;;;;6.13;3.83;;;;;;;;;;5032662;28;20192;-88
2022/11/15 12:32:31;;;;;;;5.57;3.80;;;;;;;;;;5033087;28;20204;-88
2022/11/15 12:35:37;;;;;;;5.60;3.67;;;;;;;;;;5033065;28;20177;-88
2022/11/15 12:38:59;;;;;;;10.57;5.63;;;;;;;;;;5044568;28;20188;-88
2022/11/15 12:42:03;;;;;;;8.20;4.70;;;;;;;;;;5044928;28;20215;-88
2022/11/15 12:45:28;;;;;;;5.33;4.23;;;;;;;;;;5044177;28;20544;-88
2022/11/15 12:48:35;;;;;;;5.50;3.97;;;;;;;;;;5033001;28;20524;-88
2022/11/15 12:51:42;;;;;;;5.70;3.83;;;;;;;;;;5032782;28;20220;-88
2022/11/15 12:54:55;;;;;;;8.40;5.87;;;;;;;;;;5032996;28;20176;-88
2022/11/15 12:58:26;;;;;;;6.00;4.43;;;;;;;;;;5033426;28;20184;-88
2022/11/15 13:01:33;;;;;;;7.67;4.50;;;;;;;;;;5033176;28;20212;-89
2022/11/15 13:04:38;;;;;;;6.27;4.57;;;;;;;;;;5033323;28;20177;-88
2022/11/15 13:07:42;;;;;;;6.63;4.73;;;;;;;;;;5044150;28;20176;-88
2022/11/15 13:10:46;;;;;;;6.00;4.23;;;;;;;;;;5032541;28;20587;-88
2022/11/15 13:13:51;;;;;;;7.43;4.20;;;;;;;;;;5043855;28;20599;-88
2022/11/15 13:16:59;;;;;;;5.97;5.20;;;;;;;;;;5032656;28;20176;-89
2022/11/15 13:20:06;;;;;;;6.57;4.30;;;;;;;;;;5032904;28;20180;-89
2022/11/15 13:23:15;;;;;;;5.90;4.40;;;;;;;;;;5043795;28;20172;-88
2022/11/15 13:26:20;;;;;;;5.50;4.20;;;;;;;;;;5033408;28;20177;-88
2022/11/15 13:29:25;;;;;;;8.93;4.70;;;;;;;;;;5032707;28;20200;-88
2022/11/15 13:32:29;;;;;;;6.23;4.10;;;;;;;;;;5032606;28;20682;-88
2022/11/15 13:35:39;;;;;;;5.30;4.40;;;;;;;;;;5044078;28;20180;-88
2022/11/15 13:38:43;;;;;;;5.73;4.20;;;;;;;;;;5032086;28;20184;-88
2022/11/15 13:41:49;;;;;;;15.40;4.40;;;;;;;;;;5080947;23;20234;-85
2022/11/15 13:44:58;;;;;;;8.47;4.13;;;;;;;;;;5043650;28;20180;-84
2022/11/15 13:48:03;;;;;;;5.07;3.93;;;;;;;;;;5043368;28;20191;-84
2022/11/15 13:51:33;;;;;;;5.90;4.13;;;;;;;;;;5043269;28;20219;-84
2022/11/15 13:54:43;;;;;;;5.53;4.03;;;;;;;;;;5054241;28;20657;-85
2022/11/15 13:57:53;;;;;;;5.23;3.80;;;;;;;;;;5054049;28;20184;-84
2022/11/15 14:01:00;;;;;;;5.53;3.93;;;;;;;;;;5033607;28;20219;-84
2022/11/15 14:04:04;;;;;;;4.47;4.03;;;;;;;;;;5033941;28;20180;-84
2022/11/15 14:07:17;;;;;;;7.43;4.70;;;;;;;;;;5033399;28;20668;-84
2022/11/15 14:10:40;;;;;;;11.17;4.50;;;;;;;;;;5033209;28;20181;-84
2022/11/15 14:14:09;;;;;;;4.20;3.80;;;;;;;;;;5033382;28;20169;-84
2022/11/15 14:17:40;;;;;;;10.63;4.63;;;;;;;;;;5034333;28;20200;-88
2022/11/15 14:20:44;;;;;;;5.53;4.13;;;;;;;;;;5043947;28;20199;-86
2022/11/15 14:23:48;;;;;;;5.60;4.30;;;;;;;;;;5041111;28;20176;-86
2022/11/15 14:26:53;;;;;;;4.90;3.80;;;;;;;;;;5063928;28;20183;-85
2022/11/15 14:29:57;;;;;;;6.13;4.70;;;;;;;;;;5051810;28;20191;-86
2022/11/15 14:33:02;;;;;;;6.57;4.70;;;;;;;;;;5062800;28;20223;-86
2022/11/15 14:36:18;;;;;;;6.27;4.33;;;;;;;;;;5052631;28;20179;-87
2022/11/15 14:39:24;;;;;;;4.47;3.87;;;;;;;;;;5051780;28;20523;-86
2022/11/15 14:42:28;;;;;;;9.87;4.40;;;;;;;;;;5051196;28;20218;-87
2022/11/15 14:45:32;;;;;;;7.83;4.17;;;;;;;;;;5045789;28;20200;-87
2022/11/15 14:48:36;;;;;;;8.40;4.53;;;;;;;;;;5042353;28;20540;-87
2022/11/15 14:51:41;;;;;;;7.73;4.40;;;;;;;;;;5054485;28;20211;-86
2022/11/15 14:54:45;;;;;;;7.53;4.20;;;;;;;;;;5054001;28;20532;-86
2022/11/15 14:57:50;;;;;;;5.87;4.63;;;;;;;;;;5030658;28;20532;-86
2022/11/15 15:00:54;;;;;;;8.00;4.87;;;;;;;;;;5042782;28;20188;-86
2022/11/15 15:03:59;;;;;;;6.27;4.87;;;;;;;;;;5042392;28;20180;-86
2022/11/15 15:07:03;;;;;;;5.60;4.30;;;;;;;;;;5030768;28;20179;-86
2022/11/15 15:10:08;;;;;;;6.23;3.93;;;;;;;;;;5053359;28;20184;-86
2022/11/15 15:13:17;;;;;;;5.97;4.07;;;;;;;;;;5042549;28;20314;-86
2022/11/15 15:16:21;;;;;;;6.97;4.30;;;;;;;;;;5042163;28;20180;-86
2022/11/15 15:19:25;;;;;;;6.50;3.67;;;;;;;;;;5052989;28;20200;-86
2022/11/15 15:22:30;;;;;;;6.57;3.83;;;;;;;;;;5041715;28;20219;-86
2022/11/15 15:25:34;;;;;;;6.67;4.70;;;;;;;;;;5053211;28;20200;-86
2022/11/15 15:28:39;;;;;;;5.50;4.40;;;;;;;;;;5041895;28;20181;-88
2022/11/15 15:31:43;;;;;;;8.33;4.47;;;;;;;;;;5054365;28;20227;-87
2022/11/15 15:34:47;;;;;;;5.77;4.77;;;;;;;;;;5043393;28;20200;-87
2022/11/15 15:37:51;;;;;;;10.43;4.50;;;;;;;;;;5042549;28;20180;-87
2022/11/15 15:40:56;;;;;;;5.00;4.13;;;;;;;;;;5054869;28;20184;-87
2022/11/15 15:44:00;;;;;;;6.33;4.70;;;;;;;;;;5034551;28;20176;-87
2022/11/15 15:47:20;;;;;;;6.10;4.70;;;;;;;;;;5057598;28;20184;-88
2022/11/15 15:50:31;;;;;;;7.13;4.63;;;;;;;;;;5034504;28;20184;-86
2022/11/15 15:53:36;;;;;;;5.67;4.20;;;;;;;;;;5056960;28;20662;-85
2022/11/15 15:56:40;;;;;;;6.87;4.63;;;;;;;;;;5034191;28;20180;-86
2022/11/15 15:59:44;;;;;;;6.63;4.23;;;;;;;;;;5034544;28;20184;-85
2022/11/15 16:02:48;;;;;;;5.53;4.17;;;;;;;;;;5056461;28;20211;-85
2022/11/15 16:05:53;;;;;;;6.03;4.50;;;;;;;;;;5051949;28;20203;-85
2022/11/15 16:08:57;;;;;;;6.83;4.97;;;;;;;;;;5034121;28;20200;-86
2022/11/15 16:12:01;;;;;;;10.77;5.93;;;;;;;;;;5057231;28;20215;-85
2022/11/15 16:15:06;;;;;;;9.33;6.33;;;;;;;;;;5056721;28;20639;-86
2022/11/15 16:18:16;;;;;;;11.13;5.90;;;;;;;;;;5045732;28;20184;-85
2022/11/15 16:21:20;;;;;;;9.97;5.50;;;;;;;;;;5056858;28;20212;-86
2022/11/15 16:24:24;;;;;;;10.63;7.43;;;;;;;;;;5046011;28;20172;-85
2022/11/15 16:27:28;;;;;;;11.23;7.33;;;;;;;;;;5034136;28;20184;-85
2022/11/15 16:30:33;;;;;;;10.43;6.77;;;;;;;;;;5054305;28;20202;-85
2022/11/15 16:33:37;;;;;;;8.27;5.60;;;;;;;;;;5041745;28;20215;-85
2022/11/15 16:36:41;;;;;;;11.83;5.47;;;;;;;;;;5065663;28;20184;-85
2022/11/15 16:39:46;;;;;;;8.70;5.83;;;;;;;;;;5053249;28;20175;-85
2022/11/15 16:42:50;;;;;;;8.53;5.90;;;;;;;;;;5053701;28;20223;-85
2022/11/15 16:45:54;;;;;;;7.83;5.67;;;;;;;;;;5053179;28;20199;-85
2022/11/15 16:48:58;;;;;;;7.93;5.73;;;;;;;;;;5053496;28;20179;-85
2022/11/15 16:52:02;;;;;;;6.37;4.90;;;;;;;;;;5042239;28;20578;-85
2022/11/15 16:55:07;;;;;;;6.20;4.67;;;;;;;;;;5053369;28;20503;-86
2022/11/15 16:58:11;;;;;;;6.73;4.83;;;;;;;;;;5042108;28;20184;-85
2022/11/15 17:01:22;;;;;;;8.30;4.60;;;;;;;;;;5053056;28;20211;-85
2022/11/15 17:04:31;;;;;;;8.73;4.63;;;;;;;;;;5041127;28;20176;-87
2022/11/15 17:07:49;;;;;;;8.60;5.27;;;;;;;;;;5024131;28;20196;-86
2022/11/15 17:10:57;;;;;;;8.13;5.10;;;;;;;;;;5034216;28;20193;-87
2022/11/15 17:14:01;;;;;;;10.80;4.73;;;;;;;;;;5022994;28;20200;-87
2022/11/15 17:17:05;;;;;;;8.30;5.27;;;;;;;;;;5043615;28;20200;-87
2022/11/15 17:20:15;;;;;;;6.87;5.23;;;;;;;;;;5032494;28;20192;-86
2022/11/15 17:23:19;;;;;;;7.27;4.90;;;;;;;;;;5032791;28;20176;-86
2022/11/15 17:26:23;;;;;;;6.30;5.07;;;;;;;;;;5044023;28;20180;-86
2022/11/15 17:29:29;;;;;;;7.60;5.00;;;;;;;;;;5032490;28;20180;-86
2022/11/15 17:32:36;;;;;;;7.73;6.00;;;;;;;;;;5055105;28;20573;-85
2022/11/15 17:35:40;;;;;;;7.30;5.50;;;;;;;;;;5032312;28;20181;-85
2022/11/15 17:38:49;;;;;;;9.43;5.67;;;;;;;;;;5031956;28;20631;-85
2022/11/15 17:41:53;;;;;;;7.60;5.60;;;;;;;;;;5043884;28;20216;-85
2022/11/15 17:44:57;;;;;;;7.50;6.17;;;;;;;;;;5033228;28;20196;-85
2022/11/15 17:48:02;;;;;;;8.50;6.00;;;;;;;;;;5033002;28;20172;-84
2022/11/15 17:51:10;;;;;;;7.73;5.93;;;;;;;;;;5021643;28;20215;-86
2022/11/15 17:54:14;;;;;;;9.17;6.43;;;;;;;;;;5044954;28;20204;-86
2022/11/15 17:57:18;;;;;;;10.03;6.73;;;;;;;;;;5032808;28;20181;-86
2022/11/15 18:00:22;;;;;;;8.27;5.83;;;;;;;;;;5032284;28;20180;-87
2022/11/15 18:03:26;;;;;;;9.00;6.90;;;;;;;;;;5042859;28;20172;-88
2022/11/15 18:06:33;;;;;;;11.87;7.07;;;;;;;;;;5043988;28;20229;-87
2022/11/15 18:09:41;;;;;;;13.10;8.00;;;;;;;;;;5042558;28;20180;-86
2022/11/15 18:12:45;;;;;;;10.53;7.43;;;;;;;;;;5044013;28;20219;-85
2022/11/15 18:15:54;;;;;;;9.10;6.60;;;;;;;;;;5032357;28;20184;-85
2022/11/15 18:18:59;;;;;;;10.87;7.40;;;;;;;;;;5031813;28;20196;-85
2022/11/15 18:22:04;;;;;;;9.43;6.97;;;;;;;;;;5031666;28;20215;-85
2022/11/15 18:25:08;;;;;;;12.83;6.93;;;;;;;;;;5031818;28;20181;-85
2022/11/15 18:28:12;;;;;;;10.77;7.43;;;;;;;;;;5042968;28;20624;-87
2022/11/15 18:31:16;;;;;;;14.97;8.13;;;;;;;;;;5042606;28;20211;-87
2022/11/15 18:34:22;;;;;;;11.67;8.03;;;;;;;;;;5030875;28;20204;-87
2022/11/15 18:37:26;;;;;;;12.50;8.30;;;;;;;;;;5042418;28;20185;-87
2022/11/15 18:40:30;;;;;;;13.07;9.70;;;;;;;;;;5031198;28;20180;-88
2022/11/15 18:43:35;;;;;;;17.13;11.90;;;;;;;;;;5030973;28;20176;-88
2022/11/15 18:46:39;;;;;;;15.23;10.17;;;;;;;;;;5030663;28;20188;-87
2022/11/15 18:49:44;;;;;;;9.57;7.30;;;;;;;;;;5030874;28;20184;-89
2022/11/15 18:52:48;;;;;;;14.27;10.70;;;;;;;;;;5020128;28;20224;-86
2022/11/15 18:55:52;;;;;;;13.33;9.27;;;;;;;;;;5042133;28;20596;-86
2022/11/15 18:58:58;;;;;;;11.03;7.80;;;;;;;;;;5030834;28;20176;-86
2022/11/15 19:02:02;;;;;;;9.17;7.03;;;;;;;;;;5041944;28;20215;-85
2022/11/15 19:05:07;;;;;;;8.63;7.20;;;;;;;;;;5041493;28;20542;-85
2022/11/15 19:08:11;;;;;;;11.57;7.03;;;;;;;;;;5041999;28;20180;-85
2022/11/15 19:11:20;;;;;;;11.80;7.40;;;;;;;;;;5031068;28;20211;-88
2022/11/15 19:14:25;;;;;;;10.20;7.30;;;;;;;;;;5053312;28;20208;-87
2022/11/15 19:17:30;;;;;;;11.57;7.47;;;;;;;;;;5045226;28;20653;-87
2022/11/15 19:20:37;;;;;;;11.80;7.53;;;;;;;;;;5045573;28;20184;-85
2022/11/15 19:23:42;;;;;;;9.87;7.37;;;;;;;;;;5034725;28;20176;-86
2022/11/15 19:26:46;;;;;;;11.17;7.47;;;;;;;;;;5028304;28;20191;-85
2022/11/15 19:29:50;;;;;;;10.63;7.63;;;;;;;;;;5042838;28;20187;-85
2022/11/15 19:32:55;;;;;;;10.93;7.60;;;;;;;;;;5054258;28;20223;-85
2022/11/15 19:36:05;;;;;;;10.37;7.33;;;;;;;;;;5066398;28;20194;-85
2022/11/15 19:39:12;;;;;;;8.23;6.73;;;;;;;;;;5055100;28;20191;-85
2022/11/15 19:42:16;;;;;;;13.30;6.97;;;;;;;;;;5047631;23;20241;-77